Terminal Aerodrome Forecast
Issued by NWS

Home | Current Version | Previous Version | Text Only | Print | Product List | Glossary On
Versions: 1 2 3 4 5 6 7 8 9 10 11 12 13 14 15
000
FTUS46 KSEW 240523
TAFHQM
TAF
KHQM 240523Z 2406/2506 28013KT P6SM SCT025
     FM241200 26009KT P6SM SCT022
      TEMPO 2413/2417 BKN022
     FM241800 24018G28KT P6SM SCT030
     FM250000 26014KT P6SM SCT028
     FM250300 28008KT P6SM BKN025=

USA.gov is the U.S. government's official web portal to all federal, state and local government web resources and services.